Amherst, Ohio
Current Conditions -  °F | °C
As of 10:53 AM on Thursday 27 Nov 2014 (Local Time) from KLPR Reporting Station
Overcast Overcast  
Wind Chill: 19°   Ceiling: 5500
Heat Index: 30°   Visibility: 10mi
Dew Point: 21°   Wind: 15mph
Humidity: 69%   Direction: 330°NNW
Pressure: 30.17"   Gusts: NA
Location:  41.41°N, 82.24°W
Report Text: KLPR 271553Z AUTO 33013KT 10SM SCT026 OVC055 M01/M06 A3017 RMK AO2 SNB23E42 SLP225 P0000 T10111061 TSNO
Loading
Personal Weather Stations






























Interactive Weather Map New forecast layout! Learn more

10-Day Weather Forecast

Advertisements
Track Severe Weather on mobile